createdAt,value
2022-10-21T00:01:32.018Z,12.30
2022-10-21T00:04:00.841Z,12.30
2022-10-21T00:06:27.485Z,12.30
2022-10-21T00:08:54.169Z,12.30
2022-10-21T00:11:20.844Z,12.30
2022-10-21T00:13:47.579Z,12.30
2022-10-21T00:16:15.544Z,12.40
2022-10-21T00:18:43.191Z,12.40
2022-10-21T00:21:28.159Z,12.40
2022-10-21T00:23:54.887Z,12.40
2022-10-21T00:26:21.556Z,12.40
2022-10-21T00:28:48.361Z,12.40
2022-10-21T00:31:15.269Z,12.50
2022-10-21T00:33:42.272Z,12.40
2022-10-21T00:36:14.680Z,12.50
2022-10-21T00:38:42.710Z,12.50
2022-10-21T00:41:09.625Z,12.50
2022-10-21T00:43:55.204Z,12.50
2022-10-21T00:46:25.738Z,12.60
2022-10-21T00:48:54.821Z,12.60
2022-10-21T00:51:21.517Z,12.50
2022-10-21T00:53:49.530Z,12.60
2022-10-21T00:56:21.050Z,12.60
2022-10-21T00:58:48.345Z,12.60
2022-10-21T01:01:19.091Z,12.60
2022-10-21T01:03:48.226Z,12.60
2022-10-21T01:06:15.716Z,12.60
2022-10-21T01:08:42.490Z,12.60
2022-10-21T01:11:12.940Z,12.60
2022-10-21T01:13:48.011Z,12.60
2022-10-21T01:16:14.618Z,12.60
2022-10-21T01:18:51.164Z,12.60
2022-10-21T01:21:24.069Z,12.60
2022-10-21T01:24:00.264Z,12.60
2022-10-21T01:26:45.748Z,12.70
2022-10-21T01:29:24.674Z,12.70
2022-10-21T01:31:57.386Z,12.70
2022-10-21T01:34:27.049Z,12.70
2022-10-21T01:36:57.059Z,12.70
2022-10-21T01:39:26.683Z,12.70
2022-10-21T01:42:22.860Z,12.80
2022-10-21T01:44:56.016Z,12.70
2022-10-21T01:47:24.497Z,12.70
2022-10-21T01:49:53.902Z,12.70
2022-10-21T01:52:20.856Z,12.70
2022-10-21T01:54:54.233Z,12.70
2022-10-21T01:57:22.317Z,12.80
2022-10-21T01:59:50.583Z,12.70
2022-10-21T02:02:18.279Z,12.80
2022-10-21T02:04:45.517Z,12.80
2022-10-21T02:07:12.246Z,12.80
2022-10-21T02:09:38.938Z,12.80
2022-10-21T02:12:06.547Z,12.80
2022-10-21T02:14:42.234Z,12.80
2022-10-21T02:17:13.927Z,12.80
2022-10-21T02:19:40.597Z,12.80
2022-10-21T02:22:08.276Z,12.80
2022-10-21T02:24:51.497Z,12.80
2022-10-21T02:27:18.944Z,12.80
2022-10-21T02:29:46.844Z,12.80
2022-10-21T02:32:33.787Z,12.70
2022-10-21T02:35:03.439Z,12.70
2022-10-21T02:37:36.532Z,12.70
2022-10-21T02:40:16.920Z,12.70
2022-10-21T02:42:45.194Z,12.60
2022-10-21T02:45:11.997Z,12.60
2022-10-21T02:47:39.154Z,12.50
2022-10-21T02:50:06.433Z,12.50
2022-10-21T02:52:33.060Z,12.40
2022-10-21T02:54:59.698Z,12.40
2022-10-21T02:57:26.317Z,12.40
2022-10-21T02:59:53.000Z,12.40
2022-10-21T03:02:19.648Z,12.40
2022-10-21T03:04:46.293Z,12.30
2022-10-21T03:07:12.988Z,12.20
2022-10-21T03:09:39.719Z,12.20
2022-10-21T03:12:06.426Z,12.30
2022-10-21T03:14:33.191Z,12.30
2022-10-21T03:16:59.854Z,12.30
2022-10-21T03:19:26.497Z,12.30
2022-10-21T03:21:53.205Z,12.30
2022-10-21T03:24:28.290Z,12.30
2022-10-21T03:26:55.317Z,12.30
2022-10-21T03:29:22.167Z,12.30
2022-10-21T03:31:48.946Z,12.30
2022-10-21T03:34:15.682Z,12.30
2022-10-21T03:36:42.436Z,12.40
2022-10-21T03:39:10.327Z,12.40
2022-10-21T03:41:36.964Z,12.40
2022-10-21T03:44:03.703Z,12.50
2022-10-21T03:46:30.338Z,12.50
2022-10-21T03:49:01.030Z,12.50
2022-10-21T03:51:32.289Z,12.50
2022-10-21T03:53:58.998Z,12.60
2022-10-21T03:56:25.668Z,12.60
2022-10-21T03:58:57.681Z,12.60
2022-10-21T04:01:25.455Z,12.70
2022-10-21T04:03:52.260Z,12.70
2022-10-21T04:06:18.933Z,12.70
2022-10-21T04:08:45.600Z,12.70
2022-10-21T04:11:12.295Z,12.70
2022-10-21T04:13:38.936Z,12.70
2022-10-21T04:16:06.946Z,12.60
2022-10-21T04:18:34.520Z,12.60
2022-10-21T04:21:01.260Z,12.60
2022-10-21T04:23:27.899Z,12.60
2022-10-21T04:25:54.551Z,12.50
2022-10-21T04:28:21.296Z,12.50
2022-10-21T04:30:49.337Z,12.50
2022-10-21T04:33:16.160Z,12.50
2022-10-21T04:35:42.801Z,12.50
2022-10-21T04:38:09.517Z,12.50
2022-10-21T04:40:36.207Z,12.40
2022-10-21T04:43:03.292Z,12.40
2022-10-21T04:45:30.003Z,12.40
2022-10-21T04:47:56.668Z,12.40
2022-10-21T04:50:23.340Z,12.40
2022-10-21T04:52:49.982Z,12.30
2022-10-21T04:55:16.629Z,12.30
2022-10-21T04:57:43.323Z,12.20
2022-10-21T05:00:13.344Z,12.10
2022-10-21T05:02:40.270Z,12.10
2022-10-21T05:05:07.344Z,12.10
2022-10-21T05:07:34.012Z,12.00
2022-10-21T05:10:00.739Z,12.00
2022-10-21T05:12:27.429Z,11.90
2022-10-21T05:14:54.062Z,11.90
2022-10-21T05:17:20.719Z,11.80
2022-10-21T05:19:47.369Z,11.80
2022-10-21T05:22:14.144Z,11.70
2022-10-21T05:24:40.795Z,11.70
2022-10-21T05:27:07.442Z,11.60
2022-10-21T05:29:34.137Z,11.60
2022-10-21T05:32:00.801Z,11.60
2022-10-21T05:34:27.446Z,11.60
2022-10-21T05:36:54.088Z,11.60
2022-10-21T05:39:20.741Z,11.50
2022-10-21T05:41:48.126Z,11.60
2022-10-21T05:44:15.071Z,11.60
2022-10-21T05:46:41.802Z,11.60
2022-10-21T05:49:08.638Z,11.60
2022-10-21T05:51:35.246Z,11.60
2022-10-21T05:54:03.921Z,11.60
2022-10-21T05:56:30.576Z,11.60
2022-10-21T05:58:57.363Z,11.60
2022-10-21T06:01:24.057Z,11.60
2022-10-21T06:03:50.804Z,11.70
2022-10-21T06:06:17.431Z,11.70
2022-10-21T06:08:44.331Z,11.80
2022-10-21T06:11:16.069Z,11.80
2022-10-21T06:13:42.842Z,11.80
2022-10-21T06:16:10.179Z,11.90
2022-10-21T06:18:37.157Z,11.90
2022-10-21T06:21:04.347Z,12.00
2022-10-21T06:23:31.132Z,12.00
2022-10-21T06:25:59.101Z,12.10
2022-10-21T06:28:26.113Z,12.10
2022-10-21T06:30:52.944Z,12.20
2022-10-21T06:33:23.351Z,12.30
2022-10-21T06:35:53.645Z,12.40
2022-10-21T06:38:20.363Z,12.60
2022-10-21T06:40:48.751Z,12.70
2022-10-21T06:43:15.843Z,12.90
2022-10-21T06:45:42.528Z,13.00
2022-10-21T06:48:09.315Z,13.10
2022-10-21T06:50:37.571Z,13.20
2022-10-21T06:53:04.370Z,13.30
2022-10-21T06:55:31.126Z,13.30
2022-10-21T06:57:58.831Z,13.40
2022-10-21T07:00:25.564Z,13.40
2022-10-21T07:02:52.300Z,13.50
2022-10-21T07:05:19.000Z,13.50
2022-10-21T07:07:45.645Z,13.60
2022-10-21T07:10:12.681Z,13.60
2022-10-21T07:12:39.365Z,13.70
2022-10-21T07:15:06.181Z,13.70
2022-10-21T07:17:32.859Z,13.80
2022-10-21T07:19:59.568Z,13.80
2022-10-21T07:22:26.248Z,13.90
2022-10-21T07:24:53.012Z,14.00
2022-10-21T07:27:19.698Z,14.00
2022-10-21T07:29:46.415Z,14.10
2022-10-21T07:32:13.160Z,14.20
2022-10-21T07:34:39.799Z,14.20
2022-10-21T07:37:06.515Z,14.30
2022-10-21T07:39:34.432Z,14.30
2022-10-21T07:42:01.156Z,14.40
2022-10-21T07:44:27.870Z,14.50
2022-10-21T07:46:55.019Z,14.60
2022-10-21T07:49:21.945Z,14.70
2022-10-21T07:51:50.466Z,14.70
2022-10-21T07:54:18.076Z,14.80
2022-10-21T07:56:46.203Z,15.00
2022-10-21T07:59:13.685Z,15.10
2022-10-21T08:01:44.412Z,15.30
2022-10-21T08:04:12.896Z,15.40
2022-10-21T08:06:40.355Z,15.50
2022-10-21T08:09:07.364Z,15.60
2022-10-21T08:11:34.447Z,15.70
2022-10-21T08:14:01.373Z,15.80
2022-10-21T08:16:28.006Z,16.00
2022-10-21T08:18:54.897Z,16.20
2022-10-21T08:21:21.547Z,16.40
2022-10-21T08:23:48.185Z,16.70
2022-10-21T08:26:15.444Z,16.90
2022-10-21T08:28:42.556Z,17.10
2022-10-21T08:31:11.308Z,17.30
2022-10-21T08:33:38.524Z,17.40
2022-10-21T08:36:07.131Z,17.50
2022-10-21T08:38:33.997Z,17.60
2022-10-21T08:41:00.945Z,17.60
2022-10-21T08:43:33.043Z,17.60
2022-10-21T08:46:04.369Z,17.50
2022-10-21T08:48:39.652Z,17.50
2022-10-21T08:51:07.103Z,17.40
2022-10-21T08:53:39.562Z,17.50
2022-10-21T08:56:07.538Z,17.40
2022-10-21T08:58:34.217Z,17.40
2022-10-21T09:01:00.851Z,17.40
2022-10-21T09:03:32.492Z,17.30
2022-10-21T09:06:08.285Z,17.30
2022-10-21T09:08:45.398Z,17.20
2022-10-21T09:11:20.082Z,17.10
2022-10-21T09:13:59.949Z,17.00
2022-10-21T09:16:45.405Z,17.00
2022-10-21T09:19:21.275Z,16.80
2022-10-21T09:22:10.554Z,16.80
2022-10-21T09:24:47.325Z,16.80
2022-10-21T09:27:15.176Z,16.80
2022-10-21T09:29:44.526Z,16.80
2022-10-21T09:32:11.810Z,16.80
2022-10-21T09:34:38.557Z,16.70
2022-10-21T09:37:06.521Z,16.80
2022-10-21T09:39:36.396Z,16.80
2022-10-21T09:42:07.376Z,16.90
2022-10-21T09:44:45.595Z,17.00
2022-10-21T09:47:20.809Z,17.00
2022-10-21T09:50:06.909Z,17.10
2022-10-21T09:52:36.623Z,17.10
2022-10-21T09:55:03.949Z,17.20
2022-10-21T09:58:09.270Z,17.20
2022-10-21T10:00:46.754Z,17.10
2022-10-21T10:03:28.710Z,17.20
2022-10-21T10:05:55.387Z,17.20
2022-10-21T10:08:25.055Z,17.20
2022-10-21T10:10:51.690Z,17.40
2022-10-21T10:13:23.225Z,17.50
2022-10-21T10:15:50.015Z,17.50
2022-10-21T10:18:21.067Z,17.50
2022-10-21T10:21:03.552Z,17.50
2022-10-21T10:23:30.235Z,17.40
2022-10-21T10:25:56.915Z,17.30
2022-10-21T10:28:24.879Z,17.30
2022-10-21T10:30:55.528Z,17.10
2022-10-21T10:33:26.288Z,16.90
2022-10-21T10:35:57.942Z,16.70
2022-10-21T10:38:35.542Z,16.50
2022-10-21T10:41:06.932Z,16.40
2022-10-21T10:43:35.201Z,16.20
2022-10-21T10:46:07.174Z,16.30
2022-10-21T10:48:36.918Z,16.30
2022-10-21T10:51:08.541Z,16.20
2022-10-21T10:53:36.921Z,16.20
2022-10-21T10:56:15.455Z,16.20
2022-10-21T10:58:45.779Z,16.20
2022-10-21T11:01:17.013Z,16.20
2022-10-21T11:03:55.399Z,16.20
2022-10-21T11:06:27.477Z,16.20
2022-10-21T11:08:55.938Z,16.30
2022-10-21T11:11:31.017Z,16.30
2022-10-21T11:13:57.825Z,16.20
2022-10-21T11:16:24.547Z,16.20
2022-10-21T11:18:54.300Z,16.10
2022-10-21T11:21:38.941Z,16.10
2022-10-21T11:24:18.087Z,16.00
2022-10-21T11:26:54.195Z,16.00
2022-10-21T11:29:28.584Z,16.10
2022-10-21T11:32:11.484Z,16.10
2022-10-21T11:34:38.822Z,16.20
2022-10-21T11:37:11.624Z,16.30
2022-10-21T11:39:51.807Z,16.40
2022-10-21T11:42:22.703Z,16.40
2022-10-21T11:44:49.382Z,16.50
2022-10-21T11:47:21.015Z,16.40
2022-10-21T11:49:50.696Z,16.40
2022-10-21T11:52:28.407Z,16.40
2022-10-21T11:55:12.428Z,16.30
2022-10-21T11:57:39.106Z,16.30
2022-10-21T12:00:12.122Z,16.20
2022-10-21T12:02:46.364Z,16.10
2022-10-21T12:05:22.404Z,16.20
2022-10-21T12:08:07.976Z,16.20
2022-10-21T12:10:45.091Z,16.20
2022-10-21T12:13:14.540Z,16.40
2022-10-21T12:15:43.425Z,16.60
2022-10-21T12:18:15.395Z,16.70
2022-10-21T12:20:42.831Z,16.90
2022-10-21T12:23:10.946Z,17.10
2022-10-21T12:25:40.741Z,17.30
2022-10-21T12:28:07.316Z,17.50
2022-10-21T12:30:53.327Z,17.70
2022-10-21T12:33:28.217Z,17.90
2022-10-21T12:36:15.154Z,18.00
2022-10-21T12:38:50.912Z,18.10
2022-10-21T12:41:23.609Z,18.20
2022-10-21T12:43:53.273Z,18.30
2022-10-21T12:46:24.799Z,18.50
2022-10-21T12:48:52.526Z,18.60
2022-10-21T12:51:19.108Z,18.70
2022-10-21T12:56:30.495Z,18.80
2022-10-21T12:59:06.201Z,18.90
2022-10-21T13:01:34.332Z,18.90
2022-10-21T13:04:01.079Z,19.00
2022-10-21T13:06:46.623Z,19.00
2022-10-21T13:09:31.686Z,19.00
2022-10-21T13:12:04.812Z,19.10
2022-10-21T13:14:53.680Z,19.10
2022-10-21T13:17:23.257Z,19.00
2022-10-21T13:19:56.831Z,18.90
2022-10-21T13:22:40.185Z,18.80
2022-10-21T13:25:16.447Z,18.80
2022-10-21T13:27:48.652Z,18.80
2022-10-21T13:30:35.350Z,18.70
2022-10-21T13:33:02.730Z,18.70
2022-10-21T13:35:35.554Z,18.60
2022-10-21T13:38:17.470Z,18.40
2022-10-21T13:40:48.548Z,18.30
2022-10-21T13:43:17.357Z,18.20
2022-10-21T13:45:48.942Z,18.10
2022-10-21T13:48:20.004Z,18.00
2022-10-21T13:50:47.899Z,17.90
2022-10-21T13:53:21.260Z,17.80
2022-10-21T13:55:58.542Z,17.70
2022-10-21T13:58:25.821Z,17.60
2022-10-21T14:00:57.812Z,17.40
2022-10-21T14:03:26.349Z,17.30
2022-10-21T14:05:57.735Z,17.30
2022-10-21T14:08:26.418Z,17.20
2022-10-21T14:10:53.394Z,17.00
2022-10-21T14:13:23.792Z,16.90
2022-10-21T14:15:51.243Z,16.80
2022-10-21T14:18:28.814Z,16.80
2022-10-21T14:20:57.700Z,16.70
2022-10-21T14:23:24.514Z,16.60
2022-10-21T14:25:52.756Z,16.50
2022-10-21T14:28:20.823Z,16.50
2022-10-21T14:30:48.523Z,16.50
2022-10-21T14:33:19.203Z,16.50
2022-10-21T14:36:02.968Z,16.40
2022-10-21T14:38:36.225Z,16.40
2022-10-21T14:41:05.567Z,16.30
2022-10-21T14:43:39.905Z,16.30
2022-10-21T14:46:07.923Z,16.20
2022-10-21T14:48:37.443Z,16.20
2022-10-21T14:51:09.716Z,16.10
2022-10-21T14:53:38.198Z,16.10
2022-10-21T14:56:06.567Z,16.10
2022-10-21T14:58:35.320Z,16.00
2022-10-21T15:01:16.846Z,16.00
2022-10-21T15:03:44.756Z,16.00
2022-10-21T15:06:32.652Z,16.00
2022-10-21T15:09:01.205Z,15.90
2022-10-21T15:11:28.965Z,15.90
2022-10-21T15:13:56.861Z,15.90
2022-10-21T15:16:25.944Z,15.90
2022-10-21T15:18:53.991Z,15.90
2022-10-21T15:21:25.827Z,15.80
2022-10-21T15:23:54.426Z,15.80
2022-10-21T15:26:25.364Z,15.80
2022-10-21T15:28:53.053Z,15.80
2022-10-21T15:31:24.173Z,15.70
2022-10-21T15:33:51.940Z,15.70
2022-10-21T15:36:21.594Z,15.60
2022-10-21T15:38:48.563Z,15.60
2022-10-21T15:41:23.230Z,15.60
2022-10-21T15:43:58.820Z,15.60
2022-10-21T15:46:29.339Z,15.50
2022-10-21T15:48:56.865Z,15.50
2022-10-21T15:51:23.504Z,15.50
2022-10-21T15:53:50.102Z,15.50
2022-10-21T15:56:17.699Z,15.50
2022-10-21T15:58:44.630Z,15.40
2022-10-21T16:01:16.037Z,15.40
2022-10-21T16:03:43.500Z,15.40
2022-10-21T16:06:14.507Z,15.30
2022-10-21T16:08:41.254Z,15.30
2022-10-21T16:11:25.584Z,15.30
2022-10-21T16:14:01.591Z,15.20
2022-10-21T16:16:28.282Z,15.20
2022-10-21T16:18:55.015Z,15.20
2022-10-21T16:21:22.520Z,15.20
2022-10-21T16:23:49.490Z,15.10
2022-10-21T16:26:19.697Z,15.20
2022-10-21T16:28:46.300Z,15.10
2022-10-21T16:31:13.659Z,15.10
2022-10-21T16:33:40.697Z,15.10
2022-10-21T16:36:17.931Z,15.10
2022-10-21T16:38:45.713Z,15.10
2022-10-21T16:41:16.800Z,15.10
2022-10-21T16:43:43.635Z,15.00
2022-10-21T16:46:30.525Z,15.00
2022-10-21T16:48:58.220Z,15.00
2022-10-21T16:51:26.042Z,15.00
2022-10-21T16:53:52.630Z,15.00
2022-10-21T16:56:19.311Z,15.00
2022-10-21T16:58:46.013Z,15.00
2022-10-21T17:01:19.339Z,15.00
2022-10-21T17:03:45.993Z,15.00
2022-10-21T17:06:16.737Z,15.00
2022-10-21T17:08:43.454Z,15.00
2022-10-21T17:11:14.268Z,15.00
2022-10-21T17:13:42.142Z,14.90
2022-10-21T17:16:09.103Z,14.90
2022-10-21T17:18:35.960Z,14.90
2022-10-21T17:21:02.714Z,14.80
2022-10-21T17:23:29.492Z,14.80
2022-10-21T17:25:56.230Z,14.80
2022-10-21T17:28:22.840Z,14.80
2022-10-21T17:30:49.814Z,14.80
2022-10-21T17:33:16.401Z,14.70
2022-10-21T17:35:43.029Z,14.70
2022-10-21T17:38:09.617Z,14.70
2022-10-21T17:40:36.362Z,14.70
2022-10-21T17:43:02.934Z,14.70
2022-10-21T17:45:29.526Z,14.60
2022-10-21T17:47:56.125Z,14.60
2022-10-21T17:50:25.934Z,14.60
2022-10-21T17:52:53.785Z,14.60
2022-10-21T17:55:20.731Z,14.60
2022-10-21T17:57:47.382Z,14.50
2022-10-21T18:00:14.086Z,14.50
2022-10-21T18:02:40.966Z,14.50
2022-10-21T18:05:08.455Z,14.50
2022-10-21T18:07:35.122Z,14.50
2022-10-21T18:10:01.810Z,14.50
2022-10-21T18:12:30.347Z,14.50
2022-10-21T18:14:57.015Z,14.50
2022-10-21T18:19:54.221Z,14.50
2022-10-21T18:22:21.531Z,14.50
2022-10-21T18:24:48.420Z,14.50
2022-10-21T18:27:15.103Z,14.50
2022-10-21T18:29:41.777Z,14.50
2022-10-21T18:32:12.544Z,14.60
2022-10-21T18:34:42.372Z,14.60
2022-10-21T18:37:09.099Z,14.60
2022-10-21T18:39:35.765Z,14.60
2022-10-21T18:42:02.416Z,14.60
2022-10-21T18:44:30.419Z,14.60
2022-10-21T18:46:57.156Z,14.60
2022-10-21T18:49:23.958Z,14.60
2022-10-21T18:51:50.612Z,14.60
2022-10-21T18:54:17.387Z,14.60
2022-10-21T18:56:45.012Z,14.60
2022-10-21T18:59:12.504Z,14.60
2022-10-21T19:01:40.375Z,14.60
2022-10-21T19:04:07.682Z,14.50
2022-10-21T19:06:40.211Z,14.50
2022-10-21T19:09:17.254Z,14.50
2022-10-21T19:11:44.468Z,14.50
2022-10-21T19:14:14.166Z,14.50
2022-10-21T19:16:42.150Z,14.50
2022-10-21T19:19:09.016Z,14.50
2022-10-21T19:21:35.683Z,14.50
2022-10-21T19:24:03.917Z,14.50
2022-10-21T19:26:31.691Z,14.50
2022-10-21T19:29:02.595Z,14.50
2022-10-21T19:31:29.531Z,14.50
2022-10-21T19:33:57.410Z,14.40
2022-10-21T19:36:24.185Z,14.40
2022-10-21T19:38:50.911Z,14.40
2022-10-21T19:41:19.206Z,14.40
2022-10-21T19:43:45.984Z,14.40
2022-10-21T19:46:18.916Z,14.40
2022-10-21T19:48:48.120Z,14.40
2022-10-21T19:51:16.169Z,14.40
2022-10-21T19:53:45.159Z,14.40
2022-10-21T19:56:12.471Z,14.50
2022-10-21T19:58:43.677Z,14.50
2022-10-21T20:01:11.539Z,14.50
2022-10-21T20:03:39.225Z,14.50
2022-10-21T20:06:09.783Z,14.50
2022-10-21T20:08:37.215Z,14.50
2022-10-21T20:11:05.179Z,14.50
2022-10-21T20:13:32.288Z,14.60
2022-10-21T20:15:59.433Z,14.50
2022-10-21T20:18:27.459Z,14.60
2022-10-21T20:20:54.841Z,14.60
2022-10-21T20:23:21.740Z,14.60
2022-10-21T20:25:50.072Z,14.60
2022-10-21T20:28:16.814Z,14.60
2022-10-21T20:30:43.597Z,14.50
2022-10-21T20:33:10.246Z,14.50
2022-10-21T20:35:41.039Z,14.50
2022-10-21T20:38:08.224Z,14.50
2022-10-21T20:40:35.126Z,14.50
2022-10-21T20:43:01.812Z,14.50
2022-10-21T20:45:29.301Z,14.50
2022-10-21T20:47:56.198Z,14.50
2022-10-21T20:50:22.873Z,14.50
2022-10-21T20:52:49.649Z,14.50
2022-10-21T20:55:16.352Z,14.50
2022-10-21T20:57:43.125Z,14.50
2022-10-21T21:00:10.225Z,14.50
2022-10-21T21:02:37.273Z,14.50
2022-10-21T21:05:04.416Z,14.50
2022-10-21T21:07:31.109Z,14.50
2022-10-21T21:10:02.622Z,14.50
2022-10-21T21:12:29.694Z,14.50
2022-10-21T21:14:56.405Z,14.50
2022-10-21T21:17:23.080Z,14.50
2022-10-21T21:19:49.762Z,14.40
2022-10-21T21:22:16.466Z,14.40
2022-10-21T21:24:43.164Z,14.40
2022-10-21T21:27:09.796Z,14.40
2022-10-21T21:29:36.467Z,14.30
2022-10-21T21:32:03.121Z,14.30
2022-10-21T21:34:29.760Z,14.30
2022-10-21T21:36:56.400Z,14.20
2022-10-21T21:39:23.113Z,14.30
2022-10-21T21:41:49.810Z,14.20
2022-10-21T21:44:16.433Z,14.20
2022-10-21T21:46:43.060Z,14.20
2022-10-21T21:49:09.799Z,14.20
2022-10-21T21:51:36.892Z,14.20
2022-10-21T21:54:04.744Z,14.20
2022-10-21T21:56:31.398Z,14.10
2022-10-21T21:58:58.578Z,14.10
2022-10-21T22:01:26.634Z,14.10
2022-10-21T22:03:54.218Z,14.10
2022-10-21T22:06:22.504Z,14.10
2022-10-21T22:08:49.612Z,14.10
2022-10-21T22:11:17.549Z,14.10
2022-10-21T22:13:44.396Z,14.10
2022-10-21T22:16:11.892Z,14.10
2022-10-21T22:18:38.970Z,14.10
2022-10-21T22:21:06.937Z,14.10
2022-10-21T22:23:33.640Z,14.10
2022-10-21T22:26:00.398Z,14.10
2022-10-21T22:28:27.287Z,14.10
2022-10-21T22:30:58.056Z,14.10
2022-10-21T22:33:25.065Z,14.10
2022-10-21T22:35:51.866Z,14.10
2022-10-21T22:38:18.545Z,14.10
2022-10-21T22:40:45.176Z,14.10
2022-10-21T22:43:11.850Z,14.20
2022-10-21T22:45:38.613Z,14.10
2022-10-21T22:48:05.407Z,14.10
2022-10-21T22:50:32.041Z,14.20
2022-10-21T22:52:58.732Z,14.10
2022-10-21T22:55:25.366Z,14.10
2022-10-21T22:57:52.048Z,14.10
2022-10-21T23:00:18.759Z,14.10
2022-10-21T23:02:45.432Z,14.10
2022-10-21T23:05:12.593Z,14.00
2022-10-21T23:07:39.296Z,14.00
2022-10-21T23:12:32.708Z,14.00
2022-10-21T23:14:59.327Z,14.00
2022-10-21T23:17:25.948Z,14.00
2022-10-21T23:19:52.967Z,14.00
2022-10-21T23:22:19.638Z,14.00
2022-10-21T23:24:46.352Z,14.00
2022-10-21T23:27:12.992Z,13.90
2022-10-21T23:29:39.643Z,13.90
2022-10-21T23:32:06.305Z,13.90
2022-10-21T23:34:32.980Z,13.90
2022-10-21T23:36:59.641Z,13.90
2022-10-21T23:39:26.483Z,13.90
2022-10-21T23:41:53.310Z,13.90
2022-10-21T23:44:20.139Z,13.90
2022-10-21T23:46:46.789Z,13.90
2022-10-21T23:49:13.776Z,13.90
2022-10-21T23:51:40.419Z,13.90
2022-10-21T23:54:07.044Z,13.90
2022-10-21T23:56:34.701Z,13.90
2022-10-21T23:59:01.616Z,13.90
